Time;durP1;ratioP1;P1;durP2;ratioP2;P2;SDS_P1;SDS_P2;PMS_P1;PMS_P2;Temp;Humidity;BMP_temperature;BMP_pressure;BME280_temperature;BME280_humidity;BME280_pressure;Samples;Min_cycle;Max_cycle;Signal;HPM_P1;HPM_P2
2023/07/29 07:22:57;;;;;;;1.00;0.80;;;;;;;23.26;55.24;100673.66;5025461;27;96549;-79
2023/07/29 07:25:23;;;;;;;0.70;0.60;;;;;;;23.55;55.34;100672.69;4988501;28;96893;-78
2023/07/29 07:27:50;;;;;;;1.23;0.80;;;;;;;23.94;55.11;100674.94;4981271;28;97065;-78
2023/07/29 07:30:16;;;;;;;1.30;1.00;;;;;;;24.32;54.80;100682.78;4979149;28;97161;-79
2023/07/29 07:32:43;;;;;;;0.80;0.65;;;;;;;24.66;54.32;100681.94;4982577;28;98703;-78
2023/07/29 07:35:10;;;;;;;2.08;1.00;;;;;;;24.96;53.67;100675.06;4997387;28;96943;-79
2023/07/29 07:37:36;;;;;;;0.80;0.50;;;;;;;25.20;53.27;100679.16;4982635;28;98241;-80
2023/07/29 07:40:04;;;;;;;0.90;0.65;;;;;;;25.45;52.99;100686.84;4977726;28;99496;-79
2023/07/29 07:42:31;;;;;;;0.70;0.60;;;;;;;25.62;52.82;100680.72;4997780;28;96925;-79
2023/07/29 07:44:57;;;;;;;0.63;0.60;;;;;;;25.79;52.14;100683.91;4983115;28;96740;-79
2023/07/29 07:47:24;;;;;;;1.40;0.80;;;;;;;25.92;51.74;100686.66;4973115;28;99093;-77
2023/07/29 07:49:51;;;;;;;0.88;0.75;;;;;;;26.07;51.60;100691.13;4972409;28;97793;-77
2023/07/29 07:52:17;;;;;;;0.90;0.70;;;;;;;26.17;51.34;100691.53;4975971;28;96816;-77
2023/07/29 07:54:44;;;;;;;1.00;0.60;;;;;;;26.26;51.12;100693.84;4992289;28;96705;-77
2023/07/29 07:57:11;;;;;;;0.98;0.70;;;;;;;26.37;50.76;100691.50;4967830;28;98376;-77
2023/07/29 07:59:37;;;;;;;1.20;0.57;;;;;;;26.45;50.58;100694.03;4974104;28;97408;-76
2023/07/29 08:02:05;;;;;;;0.82;0.63;;;;;;;26.52;50.25;100690.19;4986134;28;96989;-77
2023/07/29 08:04:31;;;;;;;0.80;0.60;;;;;;;26.58;50.23;100693.97;4971668;28;96969;-77
2023/07/29 08:06:58;;;;;;;0.93;0.70;;;;;;;26.64;49.79;100689.50;4976963;28;98218;-77
2023/07/29 08:09:24;;;;;;;0.90;0.70;;;;;;;26.70;49.85;100691.41;4982335;28;98604;-77
2023/07/29 08:11:51;;;;;;;2.30;0.70;;;;;;;26.75;49.42;100694.34;4954285;28;96644;-77
2023/07/29 08:14:17;;;;;;;0.70;0.60;;;;;;;26.78;49.47;100689.28;4980371;28;96805;-77
2023/07/29 08:16:44;;;;;;;1.02;0.73;;;;;;;26.82;49.20;100693.28;5000563;28;98826;-77
2023/07/29 08:19:10;;;;;;;0.75;0.60;;;;;;;26.85;49.33;100686.47;4979231;28;97434;-77
2023/07/29 08:21:38;;;;;;;0.68;0.50;;;;;;;26.88;49.19;100689.66;4967047;28;97031;-77
2023/07/29 08:24:07;;;;;;;1.05;0.73;;;;;;;26.92;48.76;100690.03;4970377;28;96725;-77
2023/07/29 08:26:33;;;;;;;1.20;0.70;;;;;;;26.94;48.91;100692.59;4975009;28;98677;-77
2023/07/29 08:29:01;;;;;;;1.00;0.68;;;;;;;26.96;48.61;100694.06;4973978;28;98024;-77
2023/07/29 08:31:27;;;;;;;1.10;0.80;;;;;;;27.00;48.59;100689.81;4964154;28;96674;-77
2023/07/29 08:33:54;;;;;;;0.63;0.50;;;;;;;27.02;48.26;100690.44;4961133;28;97254;-77
2023/07/29 08:36:20;;;;;;;1.45;0.80;;;;;;;27.03;48.02;100694.91;4962117;28;97576;-77
2023/07/29 08:38:47;;;;;;;0.55;0.50;;;;;;;27.06;47.88;100702.72;4957167;28;99025;-77
2023/07/29 08:41:18;;;;;;;0.75;0.68;;;;;;;27.08;48.18;100706.09;4968889;28;96903;-77
2023/07/29 08:43:53;;;;;;;1.67;0.63;;;;;;;27.10;48.07;100706.72;4984064;28;97163;-77
2023/07/29 08:46:20;;;;;;;0.70;0.60;;;;;;;27.11;47.85;100711.19;4968671;28;96895;-77
2023/07/29 08:48:47;;;;;;;0.60;0.50;;;;;;;27.12;47.92;100710.09;4957004;28;96633;-77
2023/07/29 08:51:15;;;;;;;1.17;0.70;;;;;;;27.13;47.46;100714.56;4962687;28;96711;-78
2023/07/29 08:53:42;;;;;;;1.90;0.73;;;;;;;27.15;47.93;100703.31;4972411;28;97048;-78
2023/07/29 08:56:09;;;;;;;0.63;0.50;;;;;;;27.16;47.54;100707.75;4960499;28;97000;-77
2023/07/29 08:58:37;;;;;;;1.20;0.80;;;;;;;27.17;47.41;100706.69;4953951;28;96648;-78
2023/07/29 09:01:03;;;;;;;0.90;0.70;;;;;;;27.17;47.58;100699.25;4964083;28;96738;-77
2023/07/29 09:03:30;;;;;;;1.20;0.70;;;;;;;27.18;47.30;100700.97;4959501;28;96828;-77
2023/07/29 09:05:58;;;;;;;0.98;0.70;;;;;;;27.19;47.27;100699.88;4978903;28;96473;-77
2023/07/29 09:08:28;;;;;;;1.05;0.70;;;;;;;27.20;47.34;100696.06;4948764;28;99754;-77
2023/07/29 09:10:55;;;;;;;0.60;0.52;;;;;;;27.21;47.15;100699.66;4970206;28;97222;-77
2023/07/29 09:13:22;;;;;;;1.65;0.80;;;;;;;27.21;47.29;100692.25;4961120;28;96747;-77
2023/07/29 09:15:49;;;;;;;1.00;0.80;;;;;;;27.22;47.04;100690.31;4973516;28;97696;-77
2023/07/29 09:18:18;;;;;;;0.60;0.60;;;;;;;27.23;47.11;100695.63;4968317;28;96676;-77
2023/07/29 09:20:49;;;;;;;1.27;0.73;;;;;;;27.23;47.14;100698.38;4979514;28;96880;-78
2023/07/29 09:23:16;;;;;;;1.23;0.80;;;;;;;27.23;47.00;100684.59;4965900;28;96822;-78
2023/07/29 09:25:46;;;;;;;2.25;0.60;;;;;;;27.25;47.02;100684.38;4955832;28;96647;-77
2023/07/29 09:28:14;;;;;;;1.55;0.90;;;;;;;27.25;46.84;100681.63;4954796;28;99139;-77
2023/07/29 09:30:43;;;;;;;1.42;0.70;;;;;;;27.26;46.75;100685.22;4987498;28;96918;-77
2023/07/29 09:33:09;;;;;;;1.20;0.88;;;;;;;27.26;46.71;100671.44;4974189;28;96797;-77
2023/07/29 09:35:37;;;;;;;0.98;0.70;;;;;;;27.27;46.88;100670.34;4966992;28;98964;-77
2023/07/29 09:38:05;;;;;;;1.10;0.60;;;;;;;27.27;46.61;100668.44;4966074;28;97383;-77
2023/07/29 09:40:40;;;;;;;1.70;0.90;;;;;;;27.27;46.82;100662.94;4965194;28;97355;-77
2023/07/29 09:43:09;;;;;;;1.30;0.60;;;;;;;27.27;46.65;100671.22;4970874;28;96742;-77
2023/07/29 09:45:37;;;;;;;1.15;0.93;;;;;;;27.28;46.64;100661.03;4961905;28;96980;-77
2023/07/29 09:48:09;;;;;;;1.35;0.80;;;;;;;27.29;46.71;100659.94;4965299;28;98272;-77
2023/07/29 09:50:36;;;;;;;1.50;0.82;;;;;;;27.28;46.49;100667.38;4970446;28;96874;-77
2023/07/29 09:53:03;;;;;;;1.88;0.70;;;;;;;27.29;46.81;100669.06;4958191;28;97113;-77
2023/07/29 09:55:32;;;;;;;2.30;0.75;;;;;;;27.29;46.76;100669.06;4974639;28;98946;-77
2023/07/29 09:58:02;;;;;;;1.58;0.90;;;;;;;27.30;46.42;100667.16;4950555;28;97290;-77
2023/07/29 10:00:29;;;;;;;2.20;1.00;;;;;;;27.30;46.51;100668.00;4959854;28;96881;-77
2023/07/29 10:02:58;;;;;;;2.13;0.90;;;;;;;27.31;46.46;100668.84;4948851;28;96671;-77
2023/07/29 10:05:28;;;;;;;1.70;1.10;;;;;;;27.30;46.34;100673.53;4950704;28;97797;-77
2023/07/29 10:07:56;;;;;;;1.77;1.00;;;;;;;27.32;46.35;100679.66;4970899;28;97101;-77
2023/07/29 10:10:23;;;;;;;3.22;0.80;;;;;;;27.32;46.44;100676.06;4966734;28;97666;-76
2023/07/29 10:12:50;;;;;;;1.10;0.70;;;;;;;27.33;46.32;100680.50;4951040;28;97000;-78
2023/07/29 10:15:17;;;;;;;1.75;0.77;;;;;;;27.33;46.41;100680.50;4953007;28;97145;-77
2023/07/29 10:17:46;;;;;;;2.10;1.05;;;;;;;27.34;46.19;100684.94;4963104;28;96853;-77
2023/07/29 10:20:16;;;;;;;3.38;0.80;;;;;;;27.33;46.03;100675.84;4949473;28;97423;-77
2023/07/29 10:22:46;;;;;;;1.38;1.00;;;;;;;27.34;46.22;100680.28;4957859;28;97069;-77
2023/07/29 10:25:15;;;;;;;0.88;0.70;;;;;;;27.34;46.17;100682.19;4972141;28;97235;-78
2023/07/29 10:27:52;;;;;;;1.20;0.90;;;;;;;27.35;46.03;100678.38;4975347;28;98262;-77
2023/07/29 10:30:18;;;;;;;3.28;0.98;;;;;;;27.34;46.25;100671.16;4956120;28;97639;-77
2023/07/29 10:32:45;;;;;;;1.50;0.85;;;;;;;27.35;46.15;100678.38;4957922;28;99206;-77
2023/07/29 10:35:13;;;;;;;1.55;0.90;;;;;;;27.36;46.14;100677.28;4959154;28;97058;-77
2023/07/29 10:37:41;;;;;;;1.35;0.70;;;;;;;27.36;46.20;100674.53;4957490;28;98180;-78
2023/07/29 10:40:11;;;;;;;1.35;0.70;;;;;;;27.36;46.01;100664.34;4955460;28;96778;-77
2023/07/29 10:42:58;;;;;;;2.15;1.10;;;;;;;27.37;45.98;100662.44;4961545;28;96698;-78
2023/07/29 10:45:25;;;;;;;2.45;0.90;;;;;;;27.36;46.01;100658.00;4948779;28;99152;-77
2023/07/29 10:47:51;;;;;;;2.85;1.00;;;;;;;27.37;46.09;100668.81;4971855;28;96767;-77
2023/07/29 10:50:20;;;;;;;2.33;1.00;;;;;;;27.38;45.82;100669.66;4949882;28;96869;-77
2023/07/29 10:52:52;;;;;;;2.35;0.90;;;;;;;27.39;45.95;100652.03;4980806;28;97097;-78
2023/07/29 10:55:25;;;;;;;2.25;0.80;;;;;;;27.38;46.01;100650.34;4964277;28;97367;-78
2023/07/29 10:57:52;;;;;;;2.53;0.80;;;;;;;27.38;46.20;100650.34;4955774;28;97628;-77
2023/07/29 11:00:23;;;;;;;3.53;1.00;;;;;;;27.40;45.88;100659.22;4946988;28;96733;-78
2023/07/29 11:03:03;;;;;;;1.38;1.00;;;;;;;27.40;45.89;100653.72;4956896;28;97002;-78
2023/07/29 11:05:50;;;;;;;3.47;1.30;;;;;;;27.39;45.87;100661.16;4952806;28;97747;-78
2023/07/29 11:08:19;;;;;;;1.77;1.10;;;;;;;27.39;46.03;100658.38;4952359;28;96726;-78
2023/07/29 11:10:59;;;;;;;1.00;0.85;;;;;;;27.40;45.88;100659.22;4954685;28;96746;-78
2023/07/29 11:13:28;;;;;;;1.65;1.10;;;;;;;27.40;45.94;100664.75;4965094;28;96961;-78
2023/07/29 11:15:56;;;;;;;1.23;0.90;;;;;;;27.41;45.95;100663.69;4951756;28;96815;-77
2023/07/29 11:18:27;;;;;;;1.45;1.10;;;;;;;27.40;45.81;100660.06;4967921;28;97351;-78
2023/07/29 11:20:54;;;;;;;1.58;0.80;;;;;;;27.40;45.84;100665.59;4969227;28;97552;-77
2023/07/29 11:23:26;;;;;;;1.52;0.88;;;;;;;27.41;45.89;100660.91;4955552;28;96841;-78
2023/07/29 11:25:53;;;;;;;1.05;0.80;;;;;;;27.41;45.52;100660.91;4950333;28;98290;-77
2023/07/29 11:28:19;;;;;;;1.92;0.90;;;;;;;27.41;45.76;100658.16;4951345;28;96893;-77
2023/07/29 11:30:46;;;;;;;1.67;0.98;;;;;;;27.41;45.71;100650.72;4964888;28;97930;-78
2023/07/29 11:33:13;;;;;;;1.23;0.80;;;;;;;27.41;45.67;100652.66;4961680;28;97590;-77
2023/07/29 11:35:39;;;;;;;1.20;0.75;;;;;;;27.40;45.69;100640.78;4949890;28;96863;-78
2023/07/29 11:38:06;;;;;;;1.48;0.95;;;;;;;27.40;45.83;100642.69;4952977;28;97820;-78
2023/07/29 11:40:32;;;;;;;1.55;0.90;;;;;;;27.42;45.74;100643.31;4972016;28;97598;-78
2023/07/29 11:43:00;;;;;;;1.85;0.90;;;;;;;27.41;45.70;100658.16;4950704;28;96288;-77
2023/07/29 11:45:26;;;;;;;1.67;1.02;;;;;;;27.40;45.83;100649.03;4955113;28;96916;-77
2023/07/29 11:48:07;;;;;;;2.30;1.00;;;;;;;27.41;45.76;100655.41;4963501;28;98515;-78
2023/07/29 11:50:35;;;;;;;1.65;0.90;;;;;;;27.41;45.54;100661.78;4945165;28;96998;-78
2023/07/29 11:53:01;;;;;;;1.20;1.10;;;;;;;27.42;45.70;100659.84;4959473;28;96574;-77
2023/07/29 11:55:28;;;;;;;2.28;0.80;;;;;;;27.41;45.65;100655.41;4954449;28;98682;-78
2023/07/29 11:57:55;;;;;;;2.92;0.90;;;;;;;27.42;45.78;100663.47;4950485;28;96784;-78
2023/07/29 12:00:22;;;;;;;1.60;1.20;;;;;;;27.42;45.43;100665.38;4970250;28;97901;-77
2023/07/29 12:02:50;;;;;;;1.88;1.00;;;;;;;27.41;45.69;100672.81;4969696;28;96700;-77
2023/07/29 12:05:18;;;;;;;1.55;0.90;;;;;;;27.42;45.72;100666.22;4944923;28;97191;-77
2023/07/29 12:07:45;;;;;;;2.47;0.90;;;;;;;27.43;45.59;100667.06;4943290;28;96796;-77
2023/07/29 12:10:12;;;;;;;1.50;1.10;;;;;;;27.43;45.70;100656.03;4945029;28;96719;-77
2023/07/29 12:12:49;;;;;;;1.17;0.75;;;;;;;27.44;45.62;100660.47;4947166;28;96396;-77
2023/07/29 12:15:24;;;;;;;2.60;1.15;;;;;;;27.44;45.59;100660.47;4964676;28;98028;-77
2023/07/29 12:17:54;;;;;;;1.75;0.98;;;;;;;27.43;45.48;100653.28;4948605;28;96875;-77
2023/07/29 12:20:21;;;;;;;1.23;0.68;;;;;;;27.43;45.63;100643.09;4951610;28;96713;-77
2023/07/29 12:22:53;;;;;;;1.40;0.80;;;;;;;27.43;45.39;100648.59;4953722;28;97137;-76
2023/07/29 12:25:19;;;;;;;2.10;0.85;;;;;;;27.43;45.38;100650.50;4941033;28;96991;-76
2023/07/29 12:27:47;;;;;;;1.23;1.00;;;;;;;27.43;45.47;100656.03;4952422;28;96689;-75
2023/07/29 12:30:13;;;;;;;2.13;0.90;;;;;;;27.43;45.59;100667.06;4945645;28;97375;-76
2023/07/29 12:32:47;;;;;;;1.35;0.88;;;;;;;27.43;45.53;100689.97;4946006;28;96919;-75
2023/07/29 12:35:14;;;;;;;1.42;0.90;;;;;;;27.43;45.68;100716.72;4951940;28;100027;-76
2023/07/29 12:37:43;;;;;;;1.85;1.13;;;;;;;27.42;45.67;100718.63;4941669;28;99637;-76
2023/07/29 12:40:26;;;;;;;4.20;0.80;;;;;;;27.42;45.37;100703.97;4943626;28;96965;-77
2023/07/29 12:42:53;;;;;;;2.22;1.33;;;;;;;27.41;45.59;100719.69;4944272;28;96604;-76
2023/07/29 12:45:22;;;;;;;1.60;0.90;;;;;;;27.40;45.70;100726.28;4936857;28;96908;-75
2023/07/29 12:47:50;;;;;;;1.13;0.70;;;;;;;27.41;45.63;100741.75;4956405;28;97753;-77
2023/07/29 12:50:16;;;;;;;2.35;0.80;;;;;;;27.41;45.66;100758.31;4943249;28;98268;-77
2023/07/29 12:52:43;;;;;;;1.52;0.70;;;;;;;27.41;45.38;100721.59;4959118;28;97010;-77
2023/07/29 12:55:12;;;;;;;1.25;0.90;;;;;;;27.41;45.46;100722.44;4954787;28;96880;-77
2023/07/29 12:57:43;;;;;;;1.92;0.85;;;;;;;27.41;45.53;100722.44;4955014;28;97691;-77
2023/07/29 13:00:10;;;;;;;1.60;1.00;;;;;;;27.41;45.45;100722.44;4947859;28;96728;-78
2023/07/29 13:02:37;;;;;;;1.10;0.85;;;;;;;27.41;45.49;100719.69;4957952;28;98566;-78
2023/07/29 13:05:06;;;;;;;1.08;0.75;;;;;;;27.42;45.55;100726.03;4948270;28;98183;-77
2023/07/29 13:07:32;;;;;;;1.95;0.88;;;;;;;27.42;45.37;100737.09;4947282;28;96876;-77
2023/07/29 13:09:59;;;;;;;1.20;0.73;;;;;;;27.41;45.58;100730.72;4953675;28;96755;-78
2023/07/29 13:12:26;;;;;;;0.98;0.70;;;;;;;27.42;45.36;100734.31;4952127;28;96940;-75
2023/07/29 13:14:52;;;;;;;1.58;0.88;;;;;;;27.41;45.42;100716.09;4966182;28;100008;-77
2023/07/29 13:17:21;;;;;;;2.25;0.75;;;;;;;27.42;45.53;100723.28;4940550;28;97203;-78
2023/07/29 13:19:48;;;;;;;1.98;1.00;;;;;;;27.42;45.74;100739.84;4956942;28;96769;-77
2023/07/29 13:22:15;;;;;;;2.35;0.90;;;;;;;27.42;45.37;100740.69;4949582;28;96832;-77
2023/07/29 13:24:42;;;;;;;1.42;0.80;;;;;;;27.42;45.43;100740.69;4953392;28;100259;-78
2023/07/29 13:27:08;;;;;;;1.23;0.80;;;;;;;27.43;45.42;100730.50;4952835;28;96625;-76
2023/07/29 13:29:35;;;;;;;2.22;0.75;;;;;;;27.43;45.57;100724.97;4959139;28;96848;-77
2023/07/29 13:32:01;;;;;;;1.60;0.98;;;;;;;27.44;45.41;100726.66;4945625;28;97048;-77
2023/07/29 13:34:28;;;;;;;1.52;0.80;;;;;;;27.44;45.32;100726.66;4942506;28;97573;-78
2023/07/29 13:36:55;;;;;;;2.60;1.00;;;;;;;27.44;45.42;100722.00;4947728;28;97278;-76
2023/07/29 13:39:21;;;;;;;1.65;0.90;;;;;;;27.45;45.52;100717.31;4960135;28;96731;-77
2023/07/29 13:41:48;;;;;;;1.65;0.98;;;;;;;27.45;45.38;100717.31;4954472;28;97508;-78
2023/07/29 13:44:14;;;;;;;1.50;0.98;;;;;;;27.45;45.49;100718.19;4944513;28;97125;-78
2023/07/29 13:46:41;;;;;;;0.95;0.63;;;;;;;27.45;45.23;100714.56;4958224;28;97000;-76
2023/07/29 13:49:07;;;;;;;1.20;0.88;;;;;;;27.46;45.47;100711.59;4961632;28;96913;-76
2023/07/29 13:51:34;;;;;;;1.00;0.80;;;;;;;27.46;45.22;100719.88;4952122;28;97491;-76
2023/07/29 13:54:01;;;;;;;1.30;0.90;;;;;;;27.47;45.28;100715.19;4944791;28;97753;-75
2023/07/29 13:56:28;;;;;;;1.00;0.90;;;;;;;27.46;45.51;100714.34;4963446;28;98315;-77
2023/07/29 13:58:54;;;;;;;0.85;0.63;;;;;;;27.46;45.15;100708.84;4943440;28;96713;-77
2023/07/29 14:01:21;;;;;;;1.00;0.85;;;;;;;27.46;45.45;100711.59;4954277;28;96922;-77
2023/07/29 14:03:48;;;;;;;1.10;0.68;;;;;;;27.47;45.48;100710.53;4950050;28;96816;-77
2023/07/29 14:06:15;;;;;;;2.10;0.98;;;;;;;27.48;45.08;100714.13;4946478;28;96689;-77
2023/07/29 14:08:42;;;;;;;0.90;0.63;;;;;;;27.48;45.45;100711.38;4944198;28;96794;-75
2023/07/29 14:11:08;;;;;;;0.95;0.85;;;;;;;27.48;45.33;100705.84;4963363;28;96853;-76
2023/07/29 14:13:35;;;;;;;1.75;0.80;;;;;;;27.49;45.43;100702.88;4964601;28;97022;-77
2023/07/29 14:16:02;;;;;;;2.40;0.80;;;;;;;27.49;45.48;100705.63;4948841;28;96798;-77
2023/07/29 14:18:30;;;;;;;4.57;0.90;;;;;;;27.49;45.37;100697.34;4975261;28;97045;-79
2023/07/29 14:20:56;;;;;;;1.05;0.88;;;;;;;27.50;45.41;100695.47;4957933;28;98369;-78
2023/07/29 14:23:23;;;;;;;1.17;0.88;;;;;;;27.51;45.52;100694.41;4976471;28;99086;-78
2023/07/29 14:25:49;;;;;;;1.55;0.70;;;;;;;27.51;45.41;100688.88;4955770;28;97144;-78
2023/07/29 14:28:16;;;;;;;1.33;0.80;;;;;;;27.50;45.33;100693.56;4943132;28;97049;-78
2023/07/29 14:30:42;;;;;;;1.20;0.93;;;;;;;27.50;45.46;100690.81;4964369;28;97042;-78
2023/07/29 14:33:10;;;;;;;1.42;0.90;;;;;;;27.52;45.48;100690.56;4941230;28;96808;-77
2023/07/29 14:35:36;;;;;;;1.08;0.80;;;;;;;27.52;45.41;100687.81;4944290;28;99057;-79
2023/07/29 14:38:03;;;;;;;1.05;0.73;;;;;;;27.51;45.42;100692.50;4957882;28;96889;-79
2023/07/29 14:40:30;;;;;;;1.17;0.77;;;;;;;27.53;45.31;100686.75;4948596;28;97685;-77
2023/07/29 14:42:56;;;;;;;2.10;0.75;;;;;;;27.54;45.46;100693.94;4950042;28;97611;-77
2023/07/29 14:45:23;;;;;;;1.45;0.85;;;;;;;27.54;45.55;100694.81;4946369;28;98992;-77
2023/07/29 14:47:49;;;;;;;2.25;0.80;;;;;;;27.56;45.57;100696.50;4955535;28;97352;-77
2023/07/29 14:50:16;;;;;;;2.38;1.25;;;;;;;27.56;45.44;100696.50;4944541;28;96753;-76
2023/07/29 14:52:43;;;;;;;1.70;0.77;;;;;;;27.57;45.48;100709.22;4959068;28;97917;-76
2023/07/29 14:55:10;;;;;;;1.38;0.73;;;;;;;27.58;45.62;100699.88;4948847;28;98986;-77
2023/07/29 14:57:37;;;;;;;1.52;0.70;;;;;;;27.58;45.28;100706.22;4948199;28;97044;-79
2023/07/29 15:00:04;;;;;;;1.77;1.10;;;;;;;27.58;45.40;100706.22;4965552;28;96737;-78
2023/07/29 15:02:30;;;;;;;1.00;0.73;;;;;;;27.57;45.64;100704.53;4924187;28;97137;-77
2023/07/29 15:04:57;;;;;;;1.70;0.90;;;;;;;27.59;45.58;100698.78;4941272;28;98998;-77
2023/07/29 15:07:24;;;;;;;1.63;0.70;;;;;;;27.59;45.49;100688.59;4945334;28;98018;-78
2023/07/29 15:09:51;;;;;;;1.10;0.70;;;;;;;27.59;45.55;100683.09;4942530;28;96983;-77
2023/07/29 15:12:17;;;;;;;1.52;0.80;;;;;;;27.59;45.52;100687.75;4948513;28;97286;-77
2023/07/29 15:14:44;;;;;;;1.27;0.73;;;;;;;27.60;45.43;100686.69;4944288;28;97561;-77
2023/07/29 15:17:11;;;;;;;1.50;0.70;;;;;;;27.61;45.93;100682.91;4948923;28;96718;-77
2023/07/29 15:19:38;;;;;;;1.95;0.75;;;;;;;27.60;45.43;100679.25;4948560;28;97326;-77
2023/07/29 15:22:05;;;;;;;1.15;0.82;;;;;;;27.60;45.55;100682.03;4950601;28;99953;-77
2023/07/29 15:24:31;;;;;;;1.35;0.80;;;;;;;27.60;45.65;100673.75;4952269;28;97957;-77
2023/07/29 15:26:58;;;;;;;0.73;0.60;;;;;;;27.61;45.55;100685.66;4945127;28;97128;-77
2023/07/29 15:29:24;;;;;;;1.15;0.75;;;;;;;27.61;45.51;100674.63;4952025;28;96839;-77
2023/07/29 15:31:51;;;;;;;1.00;0.90;;;;;;;27.62;45.51;100671.63;4954020;28;97006;-77
2023/07/29 15:34:18;;;;;;;0.90;0.63;;;;;;;27.61;45.73;100664.44;4946322;28;98039;-77
2023/07/29 15:36:44;;;;;;;0.77;0.50;;;;;;;27.62;45.51;100663.38;4944454;28;96893;-77
2023/07/29 15:39:11;;;;;;;1.10;0.85;;;;;;;27.64;45.65;100671.41;4965082;28;96980;-76
2023/07/29 15:41:37;;;;;;;1.70;0.77;;;;;;;27.62;45.12;100655.09;4952125;28;97844;-77
2023/07/29 15:44:04;;;;;;;1.00;0.80;;;;;;;27.62;45.59;100651.47;4951190;28;97347;-77
2023/07/29 15:46:30;;;;;;;0.77;0.55;;;;;;;27.64;45.64;100660.38;4950593;28;97501;-77
2023/07/29 15:48:59;;;;;;;1.10;0.80;;;;;;;27.62;45.86;100648.72;4949571;28;97185;-77
2023/07/29 15:51:26;;;;;;;1.45;0.70;;;;;;;27.62;45.48;100657.84;4954607;28;96877;-77
2023/07/29 15:53:53;;;;;;;1.13;0.70;;;;;;;27.60;45.77;100648.91;4954252;28;96772;-77
2023/07/29 15:56:20;;;;;;;1.00;0.70;;;;;;;27.62;45.74;100646.81;4947344;28;96863;-77
2023/07/29 15:58:47;;;;;;;1.02;0.68;;;;;;;27.61;45.44;100634.09;4950405;28;96787;-78
2023/07/29 16:01:13;;;;;;;2.33;0.80;;;;;;;27.62;45.54;100645.97;4963081;28;96929;-77
2023/07/29 16:03:40;;;;;;;1.35;0.63;;;;;;;27.62;45.54;100645.97;4965095;28;97637;-77
2023/07/29 16:06:07;;;;;;;1.23;1.02;;;;;;;27.60;45.68;100643.41;4950210;28;96865;-77
2023/07/29 16:08:34;;;;;;;0.90;0.70;;;;;;;27.61;45.68;100634.09;4964346;28;96885;-77
2023/07/29 16:11:01;;;;;;;1.30;0.60;;;;;;;27.62;45.59;100632.16;4950063;28;96811;-78
2023/07/29 16:13:27;;;;;;;1.92;0.60;;;;;;;27.62;45.66;100635.78;4946361;28;98372;-76
2023/07/29 16:15:54;;;;;;;1.55;0.80;;;;;;;27.61;45.51;100625.81;4963530;28;97068;-77
2023/07/29 16:18:20;;;;;;;1.05;0.85;;;;;;;27.62;45.66;100627.50;4949306;28;97262;-77
2023/07/29 16:20:49;;;;;;;0.70;0.60;;;;;;;27.62;45.85;100643.19;4946900;28;96779;-77
2023/07/29 16:23:16;;;;;;;0.80;0.70;;;;;;;27.62;45.59;100666.13;4944255;28;99281;-77
2023/07/29 16:25:43;;;;;;;0.90;0.80;;;;;;;27.62;45.63;100710.25;4952877;28;96921;-77
2023/07/29 16:28:09;;;;;;;2.42;0.70;;;;;;;27.62;45.77;100641.28;4948302;28;96877;-76
2023/07/29 16:30:36;;;;;;;1.23;0.70;;;;;;;27.64;45.66;100661.22;4943900;28;100235;-77
2023/07/29 16:33:03;;;;;;;0.70;0.60;;;;;;;27.66;45.94;100664.59;4947658;28;96824;-77
2023/07/29 16:35:29;;;;;;;1.02;0.70;;;;;;;27.67;45.86;100662.69;4963172;28;96850;-77
2023/07/29 16:37:58;;;;;;;0.90;0.63;;;;;;;27.66;45.57;100659.09;4941766;28;96728;-76
2023/07/29 16:40:24;;;;;;;0.98;0.50;;;;;;;27.66;45.56;100656.31;4955158;28;96960;-77
2023/07/29 16:42:51;;;;;;;0.95;0.63;;;;;;;27.67;45.74;100659.94;4956413;28;96870;-76
2023/07/29 16:45:17;;;;;;;1.65;0.70;;;;;;;27.67;45.46;100660.78;4943356;28;97212;-77
2023/07/29 16:47:44;;;;;;;1.40;0.70;;;;;;;27.68;45.65;100670.75;4941335;28;96932;-76
2023/07/29 16:50:11;;;;;;;1.02;0.70;;;;;;;27.68;45.86;100654.19;4959484;28;97581;-76
2023/07/29 16:52:37;;;;;;;1.17;0.80;;;;;;;27.69;45.62;100655.88;4947202;28;96746;-77
2023/07/29 16:55:05;;;;;;;1.77;0.95;;;;;;;27.70;45.86;100651.19;4960783;28;96803;-76
2023/07/29 16:57:32;;;;;;;1.52;1.00;;;;;;;27.71;45.76;100644.59;4948732;28;96746;-77
2023/07/29 16:59:59;;;;;;;1.60;0.85;;;;;;;27.72;45.93;100649.06;4942646;28;97677;-77
2023/07/29 17:02:25;;;;;;;1.55;0.90;;;;;;;27.73;45.78;100648.81;4944303;28;98280;-77
2023/07/29 17:04:52;;;;;;;1.30;0.82;;;;;;;27.75;45.85;100651.38;4952159;28;96619;-77
2023/07/29 17:07:18;;;;;;;1.10;0.75;;;;;;;27.76;45.81;100644.78;4949605;28;98432;-76
2023/07/29 17:09:48;;;;;;;2.20;0.90;;;;;;;27.78;45.70;100648.16;4962950;28;96749;-77
2023/07/29 17:12:15;;;;;;;1.50;0.95;;;;;;;27.78;45.82;100646.22;4952066;28;96639;-77
2023/07/29 17:14:41;;;;;;;2.53;1.20;;;;;;;27.78;45.70;100646.22;4952866;28;96778;-77
2023/07/29 17:17:08;;;;;;;1.98;1.23;;;;;;;27.79;45.79;100653.44;4962838;28;97806;-77
2023/07/29 17:19:35;;;;;;;2.15;1.00;;;;;;;27.80;45.63;100652.38;4946606;28;98758;-77
2023/07/29 17:22:02;;;;;;;2.65;1.00;;;;;;;27.82;45.81;100663.19;4967604;28;97654;-77
2023/07/29 17:24:28;;;;;;;3.03;0.95;;;;;;;27.83;45.79;100668.47;4949233;28;97398;-76
2023/07/29 17:26:55;;;;;;;1.73;1.00;;;;;;;27.84;45.72;100674.84;4953391;28;97095;-77
2023/07/29 17:29:22;;;;;;;1.50;0.93;;;;;;;27.83;45.79;100670.38;4947036;28;98509;-77
2023/07/29 17:31:48;;;;;;;2.20;1.20;;;;;;;27.82;45.82;100666.78;4964120;28;98792;-77
2023/07/29 17:34:15;;;;;;;1.50;0.80;;;;;;;27.84;45.63;100661.03;4958820;28;96652;-77
2023/07/29 17:36:41;;;;;;;2.05;1.02;;;;;;;27.84;45.83;100661.88;4948518;28;97030;-77
2023/07/29 17:39:08;;;;;;;2.05;1.00;;;;;;;27.86;45.76;100658.91;4950405;28;96830;-77
2023/07/29 17:41:35;;;;;;;2.38;1.15;;;;;;;27.89;45.93;100635.53;4966116;28;98121;-77
2023/07/29 17:44:01;;;;;;;2.47;0.90;;;;;;;27.91;45.81;100675.63;4949423;28;96810;-76
2023/07/29 17:46:28;;;;;;;1.75;1.10;;;;;;;27.92;45.68;100668.19;4948518;28;97462;-76
2023/07/29 17:48:55;;;;;;;2.50;0.90;;;;;;;27.96;45.74;100677.69;4947286;28;97235;-76
2023/07/29 17:51:21;;;;;;;2.53;1.00;;;;;;;27.99;45.75;100674.50;4946525;28;97717;-76
2023/07/29 17:53:48;;;;;;;4.57;1.23;;;;;;;28.01;45.65;100673.19;4949323;28;97801;-76
2023/07/29 17:56:15;;;;;;;1.77;0.93;;;;;;;28.06;45.73;100666.97;4953995;28;98879;-77
2023/07/29 17:58:41;;;;;;;1.25;0.98;;;;;;;28.16;45.73;100665.38;4943016;28;98117;-77
2023/07/29 18:01:08;;;;;;;1.38;0.85;;;;;;;28.27;45.69;100669.38;4955530;28;97186;-77
2023/07/29 18:03:34;;;;;;;2.17;0.95;;;;;;;28.31;45.64;100667.84;4944324;28;96926;-77
2023/07/29 18:06:01;;;;;;;2.40;1.20;;;;;;;28.37;45.41;100669.69;4949232;28;97900;-76
2023/07/29 18:08:28;;;;;;;2.22;0.98;;;;;;;28.41;45.20;100668.13;4956975;28;97280;-77
2023/07/29 18:10:56;;;;;;;2.60;0.90;;;;;;;28.45;45.22;100674.88;4955536;28;97443;-76
2023/07/29 18:13:24;;;;;;;1.73;1.10;;;;;;;28.49;45.46;100661.47;4942133;28;96924;-76
2023/07/29 18:15:53;;;;;;;1.92;1.00;;;;;;;28.53;45.25;100659.09;4966415;28;97082;-77
2023/07/29 18:18:19;;;;;;;2.45;1.10;;;;;;;28.55;44.99;100663.31;4947235;28;96847;-76
2023/07/29 18:20:48;;;;;;;2.67;0.80;;;;;;;28.58;45.09;100667.53;4952934;28;97694;-77
2023/07/29 18:23:16;;;;;;;3.42;1.52;;;;;;;28.59;45.14;100660.91;4958672;28;96619;-77
2023/07/29 18:25:43;;;;;;;3.20;1.00;;;;;;;28.57;45.14;100665.84;4950212;28;97654;-77
2023/07/29 18:28:10;;;;;;;2.58;1.05;;;;;;;28.54;45.05;100672.66;4946142;28;96741;-76
2023/07/29 18:30:40;;;;;;;1.98;0.90;;;;;;;28.51;45.05;100670.38;4964278;28;96704;-77
2023/07/29 18:33:07;;;;;;;3.15;1.58;;;;;;;28.47;44.84;100669.13;4943234;28;97310;-77
2023/07/29 18:35:34;;;;;;;2.58;0.90;;;;;;;28.44;45.25;100683.41;4943256;28;97069;-76
2023/07/29 18:38:01;;;;;;;1.77;0.98;;;;;;;28.41;45.06;100681.09;4955304;28;97614;-77
2023/07/29 18:40:28;;;;;;;2.97;1.20;;;;;;;28.38;45.37;100681.56;4944178;28;98168;-77
2023/07/29 18:42:55;;;;;;;2.05;1.08;;;;;;;28.34;44.92;100689.47;4946346;28;96689;-76
2023/07/29 18:45:21;;;;;;;3.42;1.05;;;;;;;28.33;45.04;100696.06;4943693;28;97264;-76
2023/07/29 18:47:49;;;;;;;1.98;1.05;;;;;;;28.31;45.40;100689.09;4949010;28;97047;-76